sensor_id;sensor_type;location;lat;lon;timestamp;temperature;humidity
29663;DHT22;16578;53.266;7.920;2023-07-29T00:01:15;23.20;77.60
29663;DHT22;16578;53.266;7.920;2023-07-29T00:03:41;23.20;77.60
29663;DHT22;16578;53.266;7.920;2023-07-29T00:06:06;23.20;77.60
29663;DHT22;16578;53.266;7.920;2023-07-29T00:08:32;23.20;77.50
29663;DHT22;16578;53.266;7.920;2023-07-29T00:10:57;23.20;77.50
29663;DHT22;16578;53.266;7.920;2023-07-29T00:13:23;23.20;77.50
29663;DHT22;16578;53.266;7.920;2023-07-29T00:15:48;23.10;77.40
29663;DHT22;16578;53.266;7.920;2023-07-29T00:18:14;23.10;77.50
29663;DHT22;16578;53.266;7.920;2023-07-29T00:20:40;23.10;77.50
29663;DHT22;16578;53.266;7.920;2023-07-29T00:23:05;23.10;77.40
29663;DHT22;16578;53.266;7.920;2023-07-29T00:25:31;23.10;77.30
29663;DHT22;16578;53.266;7.920;2023-07-29T00:27:57;23.10;77.30
29663;DHT22;16578;53.266;7.920;2023-07-29T00:30:22;23.10;77.20
29663;DHT22;16578;53.266;7.920;2023-07-29T00:32:48;23.10;77.20
29663;DHT22;16578;53.266;7.920;2023-07-29T00:35:13;23.10;77.10
29663;DHT22;16578;53.266;7.920;2023-07-29T00:37:42;23.00;77.00
29663;DHT22;16578;53.266;7.920;2023-07-29T00:40:20;23.00;77.00
29663;DHT22;16578;53.266;7.920;2023-07-29T00:42:46;23.00;76.90
29663;DHT22;16578;53.266;7.920;2023-07-29T00:45:12;22.90;76.80
29663;DHT22;16578;53.266;7.920;2023-07-29T00:47:38;22.90;76.80
29663;DHT22;16578;53.266;7.920;2023-07-29T00:50:06;22.90;76.70
29663;DHT22;16578;53.266;7.920;2023-07-29T00:52:32;22.90;76.60
29663;DHT22;16578;53.266;7.920;2023-07-29T00:54:58;22.90;77.60
29663;DHT22;16578;53.266;7.920;2023-07-29T00:57:24;22.80;76.50
29663;DHT22;16578;53.266;7.920;2023-07-29T00:59:51;22.80;76.30
29663;DHT22;16578;53.266;7.920;2023-07-29T01:02:20;22.80;76.30
29663;DHT22;16578;53.266;7.920;2023-07-29T01:04:55;22.80;76.40
29663;DHT22;16578;53.266;7.920;2023-07-29T01:10:00;22.70;76.30
29663;DHT22;16578;53.266;7.920;2023-07-29T01:15:52;22.60;76.30
29663;DHT22;16578;53.266;7.920;2023-07-29T01:18:23;22.60;76.40
29663;DHT22;16578;53.266;7.920;2023-07-29T01:20:54;22.60;76.30
29663;DHT22;16578;53.266;7.920;2023-07-29T01:23:25;22.50;76.30
29663;DHT22;16578;53.266;7.920;2023-07-29T01:25:58;22.50;76.40
29663;DHT22;16578;53.266;7.920;2023-07-29T01:28:24;22.50;76.50
29663;DHT22;16578;53.266;7.920;2023-07-29T01:30:52;22.50;76.50
29663;DHT22;16578;53.266;7.920;2023-07-29T01:33:35;22.50;76.50
29663;DHT22;16578;53.266;7.920;2023-07-29T01:36:12;22.50;76.30
29663;DHT22;16578;53.266;7.920;2023-07-29T01:38:41;22.40;76.30
29663;DHT22;16578;53.266;7.920;2023-07-29T01:41:08;22.40;76.30
29663;DHT22;16578;53.266;7.920;2023-07-29T01:43:34;22.40;76.30
29663;DHT22;16578;53.266;7.920;2023-07-29T01:46:07;22.40;76.40
29663;DHT22;16578;53.266;7.920;2023-07-29T01:48:32;22.30;76.30
29663;DHT22;16578;53.266;7.920;2023-07-29T01:50:58;22.30;76.40
29663;DHT22;16578;53.266;7.920;2023-07-29T01:53:23;22.30;76.50
29663;DHT22;16578;53.266;7.920;2023-07-29T01:55:49;22.30;76.60
29663;DHT22;16578;53.266;7.920;2023-07-29T01:58:14;22.30;76.70
29663;DHT22;16578;53.266;7.920;2023-07-29T02:00:40;22.30;76.80
29663;DHT22;16578;53.266;7.920;2023-07-29T02:03:05;22.20;76.80
29663;DHT22;16578;53.266;7.920;2023-07-29T02:05:31;22.30;76.90
29663;DHT22;16578;53.266;7.920;2023-07-29T02:07:56;22.20;77.00
29663;DHT22;16578;53.266;7.920;2023-07-29T02:10:22;22.20;77.00
29663;DHT22;16578;53.266;7.920;2023-07-29T02:12:47;22.20;77.00
29663;DHT22;16578;53.266;7.920;2023-07-29T02:15:13;22.20;77.20
29663;DHT22;16578;53.266;7.920;2023-07-29T02:17:41;22.20;77.20
29663;DHT22;16578;53.266;7.920;2023-07-29T02:20:07;22.30;77.40
29663;DHT22;16578;53.266;7.920;2023-07-29T02:22:32;22.30;77.50
29663;DHT22;16578;53.266;7.920;2023-07-29T02:24:58;22.30;77.70
29663;DHT22;16578;53.266;7.920;2023-07-29T02:27:23;22.30;77.80
29663;DHT22;16578;53.266;7.920;2023-07-29T02:29:52;22.30;77.80
29663;DHT22;16578;53.266;7.920;2023-07-29T02:32:18;22.30;78.20
29663;DHT22;16578;53.266;7.920;2023-07-29T02:34:44;22.30;77.90
29663;DHT22;16578;53.266;7.920;2023-07-29T02:37:10;22.40;78.00
29663;DHT22;16578;53.266;7.920;2023-07-29T02:39:36;22.40;78.00
29663;DHT22;16578;53.266;7.920;2023-07-29T02:42:02;22.40;78.10
29663;DHT22;16578;53.266;7.920;2023-07-29T02:44:28;22.40;78.10
29663;DHT22;16578;53.266;7.920;2023-07-29T02:46:53;22.40;78.00
29663;DHT22;16578;53.266;7.920;2023-07-29T02:49:21;22.40;78.00
29663;DHT22;16578;53.266;7.920;2023-07-29T02:51:46;22.40;77.90
29663;DHT22;16578;53.266;7.920;2023-07-29T02:54:12;22.50;77.90
29663;DHT22;16578;53.266;7.920;2023-07-29T02:56:37;22.50;77.90
29663;DHT22;16578;53.266;7.920;2023-07-29T02:59:03;22.50;77.90
29663;DHT22;16578;53.266;7.920;2023-07-29T03:01:29;22.40;77.90
29663;DHT22;16578;53.266;7.920;2023-07-29T03:03:55;22.50;77.90
29663;DHT22;16578;53.266;7.920;2023-07-29T03:06:20;22.40;77.90
29663;DHT22;16578;53.266;7.920;2023-07-29T03:08:46;22.50;77.90
29663;DHT22;16578;53.266;7.920;2023-07-29T03:11:15;22.40;77.90
29663;DHT22;16578;53.266;7.920;2023-07-29T03:13:41;22.50;78.00
29663;DHT22;16578;53.266;7.920;2023-07-29T03:16:12;22.50;78.10
29663;DHT22;16578;53.266;7.920;2023-07-29T03:18:38;22.50;78.20
29663;DHT22;16578;53.266;7.920;2023-07-29T03:21:04;22.50;78.10
29663;DHT22;16578;53.266;7.920;2023-07-29T03:23:30;22.50;78.10
29663;DHT22;16578;53.266;7.920;2023-07-29T03:25:57;22.40;78.10
29663;DHT22;16578;53.266;7.920;2023-07-29T03:28:29;22.50;78.20
29663;DHT22;16578;53.266;7.920;2023-07-29T03:30:55;22.40;78.20
29663;DHT22;16578;53.266;7.920;2023-07-29T03:33:21;22.40;78.20
29663;DHT22;16578;53.266;7.920;2023-07-29T03:35:46;22.40;78.20
29663;DHT22;16578;53.266;7.920;2023-07-29T03:38:12;22.40;78.20
29663;DHT22;16578;53.266;7.920;2023-07-29T03:40:39;22.40;78.20
29663;DHT22;16578;53.266;7.920;2023-07-29T03:43:04;22.40;78.30
29663;DHT22;16578;53.266;7.920;2023-07-29T03:45:30;22.40;78.40
29663;DHT22;16578;53.266;7.920;2023-07-29T03:47:56;22.40;78.40
29663;DHT22;16578;53.266;7.920;2023-07-29T03:50:21;22.40;78.40
29663;DHT22;16578;53.266;7.920;2023-07-29T03:52:47;22.40;78.40
29663;DHT22;16578;53.266;7.920;2023-07-29T03:55:12;22.40;78.30
29663;DHT22;16578;53.266;7.920;2023-07-29T03:57:38;22.40;78.30
29663;DHT22;16578;53.266;7.920;2023-07-29T04:00:04;22.40;78.20
29663;DHT22;16578;53.266;7.920;2023-07-29T04:02:31;22.40;77.50
29663;DHT22;16578;53.266;7.920;2023-07-29T04:04:56;22.40;78.10
29663;DHT22;16578;53.266;7.920;2023-07-29T04:07:22;22.50;78.20
29663;DHT22;16578;53.266;7.920;2023-07-29T04:09:51;22.40;78.10
29663;DHT22;16578;53.266;7.920;2023-07-29T04:12:16;22.50;78.10
29663;DHT22;16578;53.266;7.920;2023-07-29T04:14:44;22.50;78.10
29663;DHT22;16578;53.266;7.920;2023-07-29T04:17:10;22.40;78.00
29663;DHT22;16578;53.266;7.920;2023-07-29T04:19:38;22.40;78.00
29663;DHT22;16578;53.266;7.920;2023-07-29T04:22:04;22.40;78.00
29663;DHT22;16578;53.266;7.920;2023-07-29T04:24:30;22.40;78.00
29663;DHT22;16578;53.266;7.920;2023-07-29T04:26:58;22.50;78.00
29663;DHT22;16578;53.266;7.920;2023-07-29T04:29:23;22.40;78.00
29663;DHT22;16578;53.266;7.920;2023-07-29T04:31:52;22.40;78.00
29663;DHT22;16578;53.266;7.920;2023-07-29T04:34:18;22.40;78.00
29663;DHT22;16578;53.266;7.920;2023-07-29T04:36:45;22.40;78.20
29663;DHT22;16578;53.266;7.920;2023-07-29T04:39:11;22.40;78.20
29663;DHT22;16578;53.266;7.920;2023-07-29T04:41:36;22.40;78.20
29663;DHT22;16578;53.266;7.920;2023-07-29T04:44:08;22.40;78.30
29663;DHT22;16578;53.266;7.920;2023-07-29T04:46:37;22.40;78.30
29663;DHT22;16578;53.266;7.920;2023-07-29T04:49:04;22.40;78.30
29663;DHT22;16578;53.266;7.920;2023-07-29T04:51:32;22.40;78.40
29663;DHT22;16578;53.266;7.920;2023-07-29T04:53:58;22.40;78.40
29663;DHT22;16578;53.266;7.920;2023-07-29T04:56:24;22.40;78.40
29663;DHT22;16578;53.266;7.920;2023-07-29T04:58:50;22.40;78.40
29663;DHT22;16578;53.266;7.920;2023-07-29T05:01:15;22.40;78.40
29663;DHT22;16578;53.266;7.920;2023-07-29T05:03:41;22.40;78.60
29663;DHT22;16578;53.266;7.920;2023-07-29T05:06:09;22.40;78.70
29663;DHT22;16578;53.266;7.920;2023-07-29T05:08:35;22.40;78.80
29663;DHT22;16578;53.266;7.920;2023-07-29T05:11:01;22.40;78.90
29663;DHT22;16578;53.266;7.920;2023-07-29T05:13:26;22.40;79.00
29663;DHT22;16578;53.266;7.920;2023-07-29T05:15:52;22.40;79.10
29663;DHT22;16578;53.266;7.920;2023-07-29T05:18:21;22.40;79.10
29663;DHT22;16578;53.266;7.920;2023-07-29T05:20:49;22.50;79.20
29663;DHT22;16578;53.266;7.920;2023-07-29T05:23:15;22.50;79.10
29663;DHT22;16578;53.266;7.920;2023-07-29T05:25:44;22.50;79.10
29663;DHT22;16578;53.266;7.920;2023-07-29T05:28:09;22.50;79.10
29663;DHT22;16578;53.266;7.920;2023-07-29T05:30:35;22.50;79.40
29663;DHT22;16578;53.266;7.920;2023-07-29T05:33:07;22.60;79.20
29663;DHT22;16578;53.266;7.920;2023-07-29T05:35:33;22.60;79.10
29663;DHT22;16578;53.266;7.920;2023-07-29T05:37:59;22.60;79.10
29663;DHT22;16578;53.266;7.920;2023-07-29T05:40:31;22.60;79.10
29663;DHT22;16578;53.266;7.920;2023-07-29T05:42:59;22.70;79.10
29663;DHT22;16578;53.266;7.920;2023-07-29T05:45:25;22.70;79.20
29663;DHT22;16578;53.266;7.920;2023-07-29T05:47:50;22.70;79.10
29663;DHT22;16578;53.266;7.920;2023-07-29T05:50:16;22.70;79.10
29663;DHT22;16578;53.266;7.920;2023-07-29T05:52:42;22.70;79.20
29663;DHT22;16578;53.266;7.920;2023-07-29T05:55:07;22.70;79.20
29663;DHT22;16578;53.266;7.920;2023-07-29T05:57:33;22.80;80.10
29663;DHT22;16578;53.266;7.920;2023-07-29T06:00:01;22.80;79.20
29663;DHT22;16578;53.266;7.920;2023-07-29T06:02:29;22.80;79.20
29663;DHT22;16578;53.266;7.920;2023-07-29T06:05:27;22.80;79.10
29663;DHT22;16578;53.266;7.920;2023-07-29T06:07:49;22.80;79.00
29663;DHT22;16578;53.266;7.920;2023-07-29T06:10:15;22.80;78.90
29663;DHT22;16578;53.266;7.920;2023-07-29T06:12:47;22.80;78.80
29663;DHT22;16578;53.266;7.920;2023-07-29T06:15:13;22.90;79.70
29663;DHT22;16578;53.266;7.920;2023-07-29T06:17:39;22.90;78.90
29663;DHT22;16578;53.266;7.920;2023-07-29T06:20:06;22.90;78.80
29663;DHT22;16578;53.266;7.920;2023-07-29T06:22:32;22.90;78.80
29663;DHT22;16578;53.266;7.920;2023-07-29T06:24:57;22.90;78.70
29663;DHT22;16578;53.266;7.920;2023-07-29T06:27:24;22.90;78.60
29663;DHT22;16578;53.266;7.920;2023-07-29T06:29:50;22.90;78.60
29663;DHT22;16578;53.266;7.920;2023-07-29T06:32:16;22.90;78.70
29663;DHT22;16578;53.266;7.920;2023-07-29T06:34:41;22.90;78.70
29663;DHT22;16578;53.266;7.920;2023-07-29T06:37:07;22.90;78.60
29663;DHT22;16578;53.266;7.920;2023-07-29T06:39:33;22.90;78.50
29663;DHT22;16578;53.266;7.920;2023-07-29T06:41:58;22.90;78.50
29663;DHT22;16578;53.266;7.920;2023-07-29T06:44:24;23.00;78.60
29663;DHT22;16578;53.266;7.920;2023-07-29T06:46:49;23.00;78.60
29663;DHT22;16578;53.266;7.920;2023-07-29T06:49:15;23.00;78.60
29663;DHT22;16578;53.266;7.920;2023-07-29T06:51:40;23.00;78.70
29663;DHT22;16578;53.266;7.920;2023-07-29T06:54:06;23.10;78.80
29663;DHT22;16578;53.266;7.920;2023-07-29T06:56:31;23.10;78.80
29663;DHT22;16578;53.266;7.920;2023-07-29T06:58:57;23.10;78.80
29663;DHT22;16578;53.266;7.920;2023-07-29T07:01:23;23.20;78.70
29663;DHT22;16578;53.266;7.920;2023-07-29T07:03:48;23.20;78.50
29663;DHT22;16578;53.266;7.920;2023-07-29T07:06:14;23.20;78.30
29663;DHT22;16578;53.266;7.920;2023-07-29T07:08:39;23.20;78.20
29663;DHT22;16578;53.266;7.920;2023-07-29T07:11:14;23.20;78.10
29663;DHT22;16578;53.266;7.920;2023-07-29T07:13:39;23.30;77.80
29663;DHT22;16578;53.266;7.920;2023-07-29T07:16:12;23.30;77.80
29663;DHT22;16578;53.266;7.920;2023-07-29T07:18:40;23.30;77.80
29663;DHT22;16578;53.266;7.920;2023-07-29T07:21:11;23.30;77.60
29663;DHT22;16578;53.266;7.920;2023-07-29T07:23:39;23.30;77.60
29663;DHT22;16578;53.266;7.920;2023-07-29T07:26:08;23.30;77.70
29663;DHT22;16578;53.266;7.920;2023-07-29T07:28:36;23.30;77.80
29663;DHT22;16578;53.266;7.920;2023-07-29T07:31:02;23.30;77.80
29663;DHT22;16578;53.266;7.920;2023-07-29T07:33:28;23.30;78.10
29663;DHT22;16578;53.266;7.920;2023-07-29T07:35:53;23.40;78.00
29663;DHT22;16578;53.266;7.920;2023-07-29T07:38:19;23.50;78.10
29663;DHT22;16578;53.266;7.920;2023-07-29T07:40:54;23.40;78.10
29663;DHT22;16578;53.266;7.920;2023-07-29T07:43:21;23.50;77.80
29663;DHT22;16578;53.266;7.920;2023-07-29T07:45:46;23.60;77.70
29663;DHT22;16578;53.266;7.920;2023-07-29T07:48:12;23.60;77.40
29663;DHT22;16578;53.266;7.920;2023-07-29T07:50:39;23.60;77.20
29663;DHT22;16578;53.266;7.920;2023-07-29T07:53:04;23.60;76.90
29663;DHT22;16578;53.266;7.920;2023-07-29T07:55:48;23.70;76.70
29663;DHT22;16578;53.266;7.920;2023-07-29T07:58:19;23.70;76.20
29663;DHT22;16578;53.266;7.920;2023-07-29T08:01:00;23.70;76.00
29663;DHT22;16578;53.266;7.920;2023-07-29T08:03:44;23.60;76.00
29663;DHT22;16578;53.266;7.920;2023-07-29T08:06:21;23.70;76.30
29663;DHT22;16578;53.266;7.920;2023-07-29T08:08:47;23.70;76.20
29663;DHT22;16578;53.266;7.920;2023-07-29T08:11:13;23.60;76.20
29663;DHT22;16578;53.266;7.920;2023-07-29T08:13:42;23.70;76.30
29663;DHT22;16578;53.266;7.920;2023-07-29T08:16:07;23.70;76.40
29663;DHT22;16578;53.266;7.920;2023-07-29T08:18:33;23.70;76.50
29663;DHT22;16578;53.266;7.920;2023-07-29T08:21:01;23.80;76.60
29663;DHT22;16578;53.266;7.920;2023-07-29T08:23:30;23.80;76.50
29663;DHT22;16578;53.266;7.920;2023-07-29T08:26:04;23.90;76.80
29663;DHT22;16578;53.266;7.920;2023-07-29T08:28:38;23.90;76.50
29663;DHT22;16578;53.266;7.920;2023-07-29T08:31:07;23.90;76.30
29663;DHT22;16578;53.266;7.920;2023-07-29T08:33:52;24.00;76.40
29663;DHT22;16578;53.266;7.920;2023-07-29T08:36:21;24.00;76.30
29663;DHT22;16578;53.266;7.920;2023-07-29T08:38:55;24.00;76.20
29663;DHT22;16578;53.266;7.920;2023-07-29T08:41:45;24.00;76.50
29663;DHT22;16578;53.266;7.920;2023-07-29T08:44:24;24.10;76.30
29663;DHT22;16578;53.266;7.920;2023-07-29T08:46:52;24.20;77.20
29663;DHT22;16578;53.266;7.920;2023-07-29T08:49:19;24.20;76.50
29663;DHT22;16578;53.266;7.920;2023-07-29T08:51:47;24.20;75.90
29663;DHT22;16578;53.266;7.920;2023-07-29T08:54:13;24.30;75.60
29663;DHT22;16578;53.266;7.920;2023-07-29T08:56:41;24.30;75.30
29663;DHT22;16578;53.266;7.920;2023-07-29T08:59:10;24.30;75.20
29663;DHT22;16578;53.266;7.920;2023-07-29T09:01:40;24.40;75.30
29663;DHT22;16578;53.266;7.920;2023-07-29T09:04:06;24.40;75.10
29663;DHT22;16578;53.266;7.920;2023-07-29T09:06:32;24.40;74.90
29663;DHT22;16578;53.266;7.920;2023-07-29T09:08:58;24.40;75.20
29663;DHT22;16578;53.266;7.920;2023-07-29T09:11:24;24.40;75.00
29663;DHT22;16578;53.266;7.920;2023-07-29T09:13:50;24.50;75.10
29663;DHT22;16578;53.266;7.920;2023-07-29T09:16:16;24.50;74.90
29663;DHT22;16578;53.266;7.920;2023-07-29T09:18:42;24.60;75.00
29663;DHT22;16578;53.266;7.920;2023-07-29T09:21:07;24.60;75.00
29663;DHT22;16578;53.266;7.920;2023-07-29T09:23:41;24.70;74.90
29663;DHT22;16578;53.266;7.920;2023-07-29T09:26:07;24.70;74.20
29663;DHT22;16578;53.266;7.920;2023-07-29T09:28:38;24.80;74.00
29663;DHT22;16578;53.266;7.920;2023-07-29T09:31:04;24.80;73.20
29663;DHT22;16578;53.266;7.920;2023-07-29T09:33:33;24.80;72.80
29663;DHT22;16578;53.266;7.920;2023-07-29T09:36:00;24.80;72.40
29663;DHT22;16578;53.266;7.920;2023-07-29T09:38:27;24.80;72.40
29663;DHT22;16578;53.266;7.920;2023-07-29T09:40:56;24.80;72.60
29663;DHT22;16578;53.266;7.920;2023-07-29T09:43:24;24.80;72.80
29663;DHT22;16578;53.266;7.920;2023-07-29T09:45:52;24.70;73.50
29663;DHT22;16578;53.266;7.920;2023-07-29T09:48:22;24.80;73.20
29663;DHT22;16578;53.266;7.920;2023-07-29T09:50:48;24.80;73.20
29663;DHT22;16578;53.266;7.920;2023-07-29T09:53:14;24.90;73.00
29663;DHT22;16578;53.266;7.920;2023-07-29T09:55:40;24.90;72.50
29663;DHT22;16578;53.266;7.920;2023-07-29T09:58:11;25.00;71.90
29663;DHT22;16578;53.266;7.920;2023-07-29T10:00:36;25.00;71.60
29663;DHT22;16578;53.266;7.920;2023-07-29T10:03:04;25.00;71.20
29663;DHT22;16578;53.266;7.920;2023-07-29T10:05:30;25.00;71.30
29663;DHT22;16578;53.266;7.920;2023-07-29T10:07:56;25.00;70.90
29663;DHT22;16578;53.266;7.920;2023-07-29T10:10:22;25.00;71.00
29663;DHT22;16578;53.266;7.920;2023-07-29T10:12:48;25.00;70.90
29663;DHT22;16578;53.266;7.920;2023-07-29T10:15:14;25.00;71.60
29663;DHT22;16578;53.266;7.920;2023-07-29T10:17:40;25.00;71.70
29663;DHT22;16578;53.266;7.920;2023-07-29T10:20:10;25.00;71.60
29663;DHT22;16578;53.266;7.920;2023-07-29T10:22:40;25.10;70.80
29663;DHT22;16578;53.266;7.920;2023-07-29T10:25:21;25.10;70.70
29663;DHT22;16578;53.266;7.920;2023-07-29T10:27:57;25.10;70.60
29663;DHT22;16578;53.266;7.920;2023-07-29T10:30:25;25.10;70.60
29663;DHT22;16578;53.266;7.920;2023-07-29T10:32:52;25.10;70.70
29663;DHT22;16578;53.266;7.920;2023-07-29T10:35:18;25.20;70.60
29663;DHT22;16578;53.266;7.920;2023-07-29T10:37:44;25.20;70.80
29663;DHT22;16578;53.266;7.920;2023-07-29T10:40:11;25.20;70.80
29663;DHT22;16578;53.266;7.920;2023-07-29T10:42:38;25.20;70.80
29663;DHT22;16578;53.266;7.920;2023-07-29T10:45:20;25.30;70.90
29663;DHT22;16578;53.266;7.920;2023-07-29T10:47:47;25.30;70.20
29663;DHT22;16578;53.266;7.920;2023-07-29T10:50:20;25.40;70.20
29663;DHT22;16578;53.266;7.920;2023-07-29T10:52:50;25.40;69.60
29663;DHT22;16578;53.266;7.920;2023-07-29T10:55:34;25.40;69.30
29663;DHT22;16578;53.266;7.920;2023-07-29T10:58:08;25.40;69.10
29663;DHT22;16578;53.266;7.920;2023-07-29T11:00:35;25.40;69.30
29663;DHT22;16578;53.266;7.920;2023-07-29T11:03:05;25.40;69.40
29663;DHT22;16578;53.266;7.920;2023-07-29T11:05:51;25.40;69.40
29663;DHT22;16578;53.266;7.920;2023-07-29T11:08:21;25.40;69.10
29663;DHT22;16578;53.266;7.920;2023-07-29T11:11:03;25.40;69.20
29663;DHT22;16578;53.266;7.920;2023-07-29T11:13:30;25.40;68.70
29663;DHT22;16578;53.266;7.920;2023-07-29T11:15:56;25.30;69.10
29663;DHT22;16578;53.266;7.920;2023-07-29T11:18:27;25.40;69.50
29663;DHT22;16578;53.266;7.920;2023-07-29T11:20:54;25.40;69.60
29663;DHT22;16578;53.266;7.920;2023-07-29T11:23:32;25.40;69.60
29663;DHT22;16578;53.266;7.920;2023-07-29T11:25:58;25.40;69.40
29663;DHT22;16578;53.266;7.920;2023-07-29T11:28:24;25.40;69.60
29663;DHT22;16578;53.266;7.920;2023-07-29T11:30:50;25.40;69.50
29663;DHT22;16578;53.266;7.920;2023-07-29T11:33:21;25.40;69.50
29663;DHT22;16578;53.266;7.920;2023-07-29T11:35:47;25.40;69.70
29663;DHT22;16578;53.266;7.920;2023-07-29T11:38:19;25.50;69.90
29663;DHT22;16578;53.266;7.920;2023-07-29T11:41:01;25.50;69.90
29663;DHT22;16578;53.266;7.920;2023-07-29T11:43:29;25.50;70.10
29663;DHT22;16578;53.266;7.920;2023-07-29T11:45:55;25.50;69.60
29663;DHT22;16578;53.266;7.920;2023-07-29T11:48:32;25.60;69.30
29663;DHT22;16578;53.266;7.920;2023-07-29T11:50:57;25.60;69.30
29663;DHT22;16578;53.266;7.920;2023-07-29T11:53:27;25.60;69.50
29663;DHT22;16578;53.266;7.920;2023-07-29T11:55:54;25.70;69.50
29663;DHT22;16578;53.266;7.920;2023-07-29T11:58:20;25.70;69.40
29663;DHT22;16578;53.266;7.920;2023-07-29T12:00:46;25.70;69.30
29663;DHT22;16578;53.266;7.920;2023-07-29T12:03:12;25.70;69.40
29663;DHT22;16578;53.266;7.920;2023-07-29T12:05:38;25.70;69.10
29663;DHT22;16578;53.266;7.920;2023-07-29T12:08:04;25.80;68.90
29663;DHT22;16578;53.266;7.920;2023-07-29T12:10:30;25.80;68.70
29663;DHT22;16578;53.266;7.920;2023-07-29T12:12:55;25.80;68.70
29663;DHT22;16578;53.266;7.920;2023-07-29T12:15:28;25.80;68.70
29663;DHT22;16578;53.266;7.920;2023-07-29T12:17:55;25.90;68.10
29663;DHT22;16578;53.266;7.920;2023-07-29T12:20:21;25.90;67.80
29663;DHT22;16578;53.266;7.920;2023-07-29T12:22:58;25.90;67.70
29663;DHT22;16578;53.266;7.920;2023-07-29T12:25:39;25.90;67.80
29663;DHT22;16578;53.266;7.920;2023-07-29T12:28:11;25.90;67.90
29663;DHT22;16578;53.266;7.920;2023-07-29T12:30:43;25.90;67.50
29663;DHT22;16578;53.266;7.920;2023-07-29T12:33:09;26.00;67.40
29663;DHT22;16578;53.266;7.920;2023-07-29T12:35:37;26.00;68.30
29663;DHT22;16578;53.266;7.920;2023-07-29T12:38:03;26.00;67.90
29663;DHT22;16578;53.266;7.920;2023-07-29T12:40:29;26.10;67.70
29663;DHT22;16578;53.266;7.920;2023-07-29T12:42:56;26.10;67.90
29663;DHT22;16578;53.266;7.920;2023-07-29T12:45:22;26.20;67.80
29663;DHT22;16578;53.266;7.920;2023-07-29T12:47:56;26.20;67.80
29663;DHT22;16578;53.266;7.920;2023-07-29T12:50:22;26.20;68.30
29663;DHT22;16578;53.266;7.920;2023-07-29T12:52:47;26.30;67.10
29663;DHT22;16578;53.266;7.920;2023-07-29T12:55:13;26.30;67.00
29663;DHT22;16578;53.266;7.920;2023-07-29T12:57:41;26.30;66.90
29663;DHT22;16578;53.266;7.920;2023-07-29T13:00:08;26.40;67.10
29663;DHT22;16578;53.266;7.920;2023-07-29T13:02:34;26.40;66.70
29663;DHT22;16578;53.266;7.920;2023-07-29T13:04:59;26.40;66.30
29663;DHT22;16578;53.266;7.920;2023-07-29T13:07:25;26.40;66.20
29663;DHT22;16578;53.266;7.920;2023-07-29T13:09:51;26.40;65.90
29663;DHT22;16578;53.266;7.920;2023-07-29T13:12:16;26.40;65.70
29663;DHT22;16578;53.266;7.920;2023-07-29T13:14:42;26.40;65.70
29663;DHT22;16578;53.266;7.920;2023-07-29T13:17:07;26.40;65.60
29663;DHT22;16578;53.266;7.920;2023-07-29T13:19:33;26.30;65.70
29663;DHT22;16578;53.266;7.920;2023-07-29T13:21:58;26.30;65.90
29663;DHT22;16578;53.266;7.920;2023-07-29T13:24:24;26.20;66.10
29663;DHT22;16578;53.266;7.920;2023-07-29T13:26:49;26.10;66.50
29663;DHT22;16578;53.266;7.920;2023-07-29T13:29:15;26.00;67.00
29663;DHT22;16578;53.266;7.920;2023-07-29T13:31:40;26.00;67.60
29663;DHT22;16578;53.266;7.920;2023-07-29T13:34:06;25.90;68.10
29663;DHT22;16578;53.266;7.920;2023-07-29T13:36:31;25.90;68.50
29663;DHT22;16578;53.266;7.920;2023-07-29T13:38:57;25.90;68.80
29663;DHT22;16578;53.266;7.920;2023-07-29T13:41:23;25.90;69.20
29663;DHT22;16578;53.266;7.920;2023-07-29T13:43:48;25.80;69.30
29663;DHT22;16578;53.266;7.920;2023-07-29T13:46:14;25.80;69.00
29663;DHT22;16578;53.266;7.920;2023-07-29T13:48:39;25.80;68.70
29663;DHT22;16578;53.266;7.920;2023-07-29T13:51:05;25.90;68.70
29663;DHT22;16578;53.266;7.920;2023-07-29T13:53:30;25.90;68.80
29663;DHT22;16578;53.266;7.920;2023-07-29T13:55:56;25.90;68.80
29663;DHT22;16578;53.266;7.920;2023-07-29T13:58:22;25.90;68.90
29663;DHT22;16578;53.266;7.920;2023-07-29T14:00:47;26.00;69.00
29663;DHT22;16578;53.266;7.920;2023-07-29T14:03:13;25.90;69.00
29663;DHT22;16578;53.266;7.920;2023-07-29T14:05:39;26.00;69.10
29663;DHT22;16578;53.266;7.920;2023-07-29T14:08:04;26.00;68.90
29663;DHT22;16578;53.266;7.920;2023-07-29T14:10:30;26.00;68.70
29663;DHT22;16578;53.266;7.920;2023-07-29T14:12:55;26.00;68.10
29663;DHT22;16578;53.266;7.920;2023-07-29T14:15:21;26.00;67.30
29663;DHT22;16578;53.266;7.920;2023-07-29T14:17:46;26.00;65.90
29663;DHT22;16578;53.266;7.920;2023-07-29T14:20:13;26.00;65.20
29663;DHT22;16578;53.266;7.920;2023-07-29T14:22:39;25.80;65.20
29663;DHT22;16578;53.266;7.920;2023-07-29T14:25:05;25.70;64.10
29663;DHT22;16578;53.266;7.920;2023-07-29T14:27:31;25.60;64.50
29663;DHT22;16578;53.266;7.920;2023-07-29T14:29:56;25.50;64.90
29663;DHT22;16578;53.266;7.920;2023-07-29T14:32:22;25.40;65.30
29663;DHT22;16578;53.266;7.920;2023-07-29T14:34:47;25.30;66.20
29663;DHT22;16578;53.266;7.920;2023-07-29T14:37:14;25.30;66.60
29663;DHT22;16578;53.266;7.920;2023-07-29T14:39:40;25.30;67.20
29663;DHT22;16578;53.266;7.920;2023-07-29T14:42:05;25.30;67.40
29663;DHT22;16578;53.266;7.920;2023-07-29T14:44:32;25.30;67.30
29663;DHT22;16578;53.266;7.920;2023-07-29T14:46:57;25.30;67.50
29663;DHT22;16578;53.266;7.920;2023-07-29T14:49:23;25.30;67.90
29663;DHT22;16578;53.266;7.920;2023-07-29T14:51:48;25.30;67.80
29663;DHT22;16578;53.266;7.920;2023-07-29T14:54:14;25.30;67.90
29663;DHT22;16578;53.266;7.920;2023-07-29T14:56:39;25.30;67.90
29663;DHT22;16578;53.266;7.920;2023-07-29T14:59:05;25.30;68.00
29663;DHT22;16578;53.266;7.920;2023-07-29T15:01:31;25.40;67.90
29663;DHT22;16578;53.266;7.920;2023-07-29T15:03:57;25.40;67.70
29663;DHT22;16578;53.266;7.920;2023-07-29T15:06:22;25.40;67.70
29663;DHT22;16578;53.266;7.920;2023-07-29T15:08:48;25.40;67.90
29663;DHT22;16578;53.266;7.920;2023-07-29T15:11:13;25.40;68.90
29663;DHT22;16578;53.266;7.920;2023-07-29T15:13:39;25.40;68.30
29663;DHT22;16578;53.266;7.920;2023-07-29T15:16:05;25.40;68.50
29663;DHT22;16578;53.266;7.920;2023-07-29T15:18:30;25.40;68.30
29663;DHT22;16578;53.266;7.920;2023-07-29T15:20:58;25.30;68.30
29663;DHT22;16578;53.266;7.920;2023-07-29T15:23:25;25.30;68.40
29663;DHT22;16578;53.266;7.920;2023-07-29T15:25:50;25.30;68.40
29663;DHT22;16578;53.266;7.920;2023-07-29T15:28:16;25.30;68.40
29663;DHT22;16578;53.266;7.920;2023-07-29T15:30:42;25.30;68.30
29663;DHT22;16578;53.266;7.920;2023-07-29T15:33:07;25.20;68.20
29663;DHT22;16578;53.266;7.920;2023-07-29T15:35:38;25.20;68.20
29663;DHT22;16578;53.266;7.920;2023-07-29T15:38:06;25.20;68.60